Time;durP1;ratioP1;P1;durP2;ratioP2;P2;SDS_P1;SDS_P2;PMS_P1;PMS_P2;Temp;Humidity;BMP_temperature;BMP_pressure;BME280_temperature;BME280_humidity;BME280_pressure;Samples;Min_cycle;Max_cycle;Signal;HPM_P1;HPM_P2
2023/08/08 00:03:13;;;;;;;6.93;2.50;;;;;;;17.26;100.00;101401.47;10503645;28;20063;-70
2023/08/08 00:08:13;;;;;;;10.45;3.00;;;;;;;17.24;100.00;101388.03;10486279;28;20020;-71
2023/08/08 00:13:14;;;;;;;12.18;2.78;;;;;;;17.21;100.00;101399.44;10502848;28;20037;-70
2023/08/08 00:18:14;;;;;;;4.63;1.88;;;;;;;17.15;100.00;101395.72;10502655;28;20113;-71
2023/08/08 00:23:15;;;;;;;3.40;1.85;;;;;;;17.10;100.00;101400.19;10484572;28;20040;-70
2023/08/08 00:28:16;;;;;;;3.08;2.53;;;;;;;17.11;100.00;101396.41;10503473;28;20441;-71
2023/08/08 00:33:16;;;;;;;4.95;1.98;;;;;;;17.04;100.00;101399.22;10501064;28;20029;-70
2023/08/08 00:38:18;;;;;;;2.00;1.48;;;;;;;16.86;100.00;101397.31;10501870;28;20032;-71
2023/08/08 00:43:18;;;;;;;4.65;2.45;;;;;;;16.67;100.00;101382.75;10502016;28;20494;-70
2023/08/08 00:48:19;;;;;;;2.58;2.33;;;;;;;16.54;100.00;101382.88;10501055;28;20098;-70
2023/08/08 00:53:20;;;;;;;4.75;2.50;;;;;;;16.41;100.00;101385.75;10500018;28;20055;-70
2023/08/08 00:58:20;;;;;;;2.22;1.98;;;;;;;16.38;100.00;101387.03;10483273;28;20025;-70
2023/08/08 01:03:21;;;;;;;5.38;1.65;;;;;;;16.36;100.00;101386.41;10499769;28;20478;-71
2023/08/08 01:08:23;;;;;;;1.42;1.33;;;;;;;16.55;100.00;101383.72;10501039;28;20050;-70
2023/08/08 01:13:23;;;;;;;2.50;2.30;;;;;;;16.66;100.00;101380.25;10499544;28;20017;-71
2023/08/08 01:18:24;;;;;;;9.98;2.05;;;;;;;16.77;100.00;101390.47;10499325;28;20103;-70
2023/08/08 01:23:26;;;;;;;2.20;1.73;;;;;;;16.79;100.00;101390.25;10498461;28;20024;-71
2023/08/08 01:28:27;;;;;;;5.97;2.33;;;;;;;16.71;100.00;101388.59;10500005;28;20021;-70
2023/08/08 01:33:27;;;;;;;3.25;2.15;;;;;;;16.56;100.00;101380.78;10497978;28;20035;-70
2023/08/08 01:38:31;;;;;;;2.42;2.10;;;;;;;16.52;100.00;101379.53;10498239;28;20024;-70
2023/08/08 01:43:31;;;;;;;6.22;2.35;;;;;;;16.37;100.00;101376.31;10500853;28;20070;-71
2023/08/08 01:48:32;;;;;;;2.72;2.40;;;;;;;16.34;100.00;101369.41;10482650;28;20463;-70
2023/08/08 01:53:32;;;;;;;2.53;1.65;;;;;;;16.39;100.00;101385.97;10497654;28;20036;-70
2023/08/08 01:58:33;;;;;;;3.58;1.85;;;;;;;16.46;100.00;101377.69;10515076;28;20033;-70
2023/08/08 02:03:33;;;;;;;10.43;2.00;;;;;;;16.43;100.00;101369.94;10498944;28;20025;-71
2023/08/08 02:08:33;;;;;;;2.05;1.58;;;;;;;16.23;100.00;101356.47;10500046;28;20118;-70
2023/08/08 02:13:34;;;;;;;6.03;1.80;;;;;;;15.97;100.00;101366.56;10499238;28;20033;-70
2023/08/08 02:18:36;;;;;;;2.22;1.50;;;;;;;16.06;100.00;101352.63;10498150;28;20024;-70
2023/08/08 02:23:36;;;;;;;3.55;1.80;;;;;;;16.20;100.00;101360.47;10499354;28;20041;-70
2023/08/08 02:28:37;;;;;;;2.55;1.83;;;;;;;16.16;100.00;101363.91;10498774;28;20056;-70
2023/08/08 02:33:37;;;;;;;4.68;1.23;;;;;;;16.19;100.00;101357.97;10498194;28;20036;-70
2023/08/08 02:38:37;;;;;;;1.08;1.00;;;;;;;16.11;100.00;101350.06;10498021;28;20522;-70
2023/08/08 02:43:38;;;;;;;5.68;1.80;;;;;;;15.96;100.00;101353.13;10497112;28;20048;-70
2023/08/08 02:48:38;;;;;;;4.28;1.48;;;;;;;15.71;100.00;101344.91;10495849;28;20488;-70
2023/08/08 02:53:38;;;;;;;1.30;1.17;;;;;;;15.56;100.00;101348.75;10497024;28;20036;-70
2023/08/08 02:58:39;;;;;;;13.98;1.65;;;;;;;15.59;100.00;101351.03;10496466;28;20063;-70
2023/08/08 03:03:39;;;;;;;13.00;2.22;;;;;;;15.78;100.00;101351.16;10496751;28;20039;-70
2023/08/08 03:08:40;;;;;;;4.90;1.40;;;;;;;15.87;100.00;101338.09;10496749;28;20040;-70
2023/08/08 03:13:40;;;;;;;2.90;1.88;;;;;;;15.98;100.00;101340.06;10496095;28;20029;-70
2023/08/08 03:18:40;;;;;;;2.85;1.75;;;;;;;16.01;100.00;101340.47;10497208;28;20040;-70
2023/08/08 03:23:41;;;;;;;1.08;1.08;;;;;;;16.01;100.00;101335.00;10478654;28;20411;-70
2023/08/08 03:28:41;;;;;;;1.98;1.25;;;;;;;16.03;100.00;101329.31;10494548;28;20372;-70
2023/08/08 03:33:42;;;;;;;2.42;2.20;;;;;;;15.91;100.00;101340.13;10496197;28;20082;-70
2023/08/08 03:38:45;;;;;;;2.22;1.25;;;;;;;15.91;100.00;101334.66;10495476;28;20029;-70
2023/08/08 03:43:46;;;;;;;1.38;1.27;;;;;;;16.00;100.00;101327.88;10498056;28;20146;-70
2023/08/08 03:48:46;;;;;;;4.13;1.50;;;;;;;16.07;100.00;101316.06;10495904;28;20107;-70
2023/08/08 03:53:46;;;;;;;5.35;1.02;;;;;;;15.95;100.00;101319.53;10496297;28;20332;-70
2023/08/08 03:58:47;;;;;;;4.07;1.58;;;;;;;15.69;100.00;101320.53;10495711;28;20074;-70
2023/08/08 04:03:47;;;;;;;1.17;1.15;;;;;;;15.38;100.00;101310.47;10495794;28;20040;-70
2023/08/08 04:08:48;;;;;;;2.42;1.77;;;;;;;15.26;100.00;101312.19;10496107;28;20363;-70
2023/08/08 04:13:48;;;;;;;4.95;2.15;;;;;;;15.22;100.00;101317.25;10499831;28;20035;-70
2023/08/08 04:18:49;;;;;;;10.05;1.52;;;;;;;15.17;100.00;101319.78;10502042;28;20074;-71
2023/08/08 04:23:49;;;;;;;2.00;1.00;;;;;;;15.05;100.00;101311.44;10503358;28;20032;-70
2023/08/08 04:28:49;;;;;;;2.35;1.67;;;;;;;15.01;100.00;101312.94;10501705;28;20028;-70
2023/08/08 04:33:50;;;;;;;6.53;1.73;;;;;;;15.06;100.00;101323.19;10500910;28;20107;-70
2023/08/08 04:38:50;;;;;;;2.10;1.02;;;;;;;15.10;100.00;101322.56;10502519;28;20035;-71
2023/08/08 04:43:51;;;;;;;1.60;1.25;;;;;;;15.31;100.00;101321.38;10503873;28;20359;-71
2023/08/08 04:48:51;;;;;;;2.67;1.38;;;;;;;15.53;100.00;101334.69;10502537;28;20028;-71
2023/08/08 04:53:51;;;;;;;1.23;1.15;;;;;;;15.62;100.00;101329.81;10501355;28;20452;-70
2023/08/08 04:58:52;;;;;;;6.80;2.72;;;;;;;15.67;100.00;101319.94;10500858;28;20086;-70
2023/08/08 05:03:52;;;;;;;4.47;1.85;;;;;;;15.74;100.00;101326.19;10501511;28;20040;-70
2023/08/08 05:08:53;;;;;;;4.53;1.55;;;;;;;15.86;100.00;101331.78;10500659;28;20032;-70
2023/08/08 05:13:53;;;;;;;1.80;1.70;;;;;;;15.93;100.00;101329.84;10499162;28;20477;-70
2023/08/08 05:18:53;;;;;;;1.70;1.10;;;;;;;16.10;100.00;101327.38;10498333;28;20101;-70
2023/08/08 05:23:54;;;;;;;1.67;1.00;;;;;;;16.40;100.00;101333.00;10499661;28;20033;-70
2023/08/08 05:28:54;;;;;;;1.27;1.27;;;;;;;16.16;100.00;101336.56;10501217;28;20328;-70
2023/08/08 05:33:55;;;;;;;10.65;1.63;;;;;;;16.98;100.00;101341.84;10500416;28;20037;-70
2023/08/08 05:38:55;;;;;;;0.80;0.80;;;;;;;17.71;100.00;101333.47;10499170;28;20075;-70
2023/08/08 05:43:55;;;;;;;1.33;1.23;;;;;;;18.33;100.00;101339.41;10500348;28;20137;-71
2023/08/08 05:48:56;;;;;;;1.38;1.27;;;;;;;18.70;97.90;101338.31;10499496;28;20040;-70
2023/08/08 05:53:56;;;;;;;3.00;1.60;;;;;;;18.85;94.34;101335.91;10499520;28;20041;-70
2023/08/08 05:58:57;;;;;;;2.63;1.30;;;;;;;19.26;97.47;101336.75;10498503;28;20415;-70
2023/08/08 06:03:59;;;;;;;1.25;1.15;;;;;;;19.71;97.49;101347.78;10498772;28;20060;-70
2023/08/08 06:08:59;;;;;;;4.85;1.20;;;;;;;19.47;88.93;101346.22;10497966;28;20468;-70
2023/08/08 06:13:59;;;;;;;2.15;1.27;;;;;;;19.91;89.49;101341.84;10497781;28;20036;-70
2023/08/08 06:19:00;;;;;;;1.30;1.20;;;;;;;20.08;83.97;101352.81;10497724;28;20032;-70
2023/08/08 06:24:01;;;;;;;1.15;1.08;;;;;;;20.52;84.50;101347.50;10498075;28;20029;-70
2023/08/08 06:29:01;;;;;;;1.80;1.70;;;;;;;20.82;75.54;101351.75;10499209;28;20086;-70
2023/08/08 06:34:01;;;;;;;1.35;1.25;;;;;;;21.39;84.00;101353.28;10497643;28;20032;-70
2023/08/08 06:39:02;;;;;;;3.03;1.75;;;;;;;21.92;77.08;101352.44;10497208;28;20506;-70
2023/08/08 06:44:02;;;;;;;0.70;0.70;;;;;;;21.84;64.71;101347.41;10496306;28;20200;-70
2023/08/08 06:49:04;;;;;;;0.85;0.85;;;;;;;21.87;65.86;101330.34;10496810;28;20041;-70
2023/08/08 06:54:04;;;;;;;1.20;1.00;;;;;;;21.86;63.76;101338.84;10496762;28;20036;-70
2023/08/08 06:59:04;;;;;;;1.73;1.42;;;;;;;21.99;64.01;101342.03;10495931;28;20033;-70
2023/08/08 07:04:05;;;;;;;1.67;1.33;;;;;;;20.76;77.68;101344.50;10496006;28;20032;-70
2023/08/08 07:09:06;;;;;;;1.30;1.08;;;;;;;21.35;75.48;101345.53;10496564;28;20033;-70
2023/08/08 07:14:06;;;;;;;2.78;1.40;;;;;;;21.96;61.71;101339.78;10496381;28;20037;-70
2023/08/08 07:19:07;;;;;;;1.17;1.10;;;;;;;22.68;66.97;101343.88;10495047;28;20036;-70
2023/08/08 07:24:07;;;;;;;2.40;0.98;;;;;;;22.51;63.60;101330.28;10495568;28;20055;-70
2023/08/08 07:29:08;;;;;;;1.33;1.10;;;;;;;22.12;68.88;101334.41;10496004;28;20051;-70
2023/08/08 07:34:08;;;;;;;1.40;1.27;;;;;;;21.89;62.96;101330.91;10495980;28;20097;-70
2023/08/08 07:39:09;;;;;;;1.42;1.02;;;;;;;22.19;67.80;101321.25;10496875;28;20060;-70
2023/08/08 07:44:09;;;;;;;1.08;0.88;;;;;;;23.33;57.17;101329.84;10497402;28;20499;-70
2023/08/08 07:49:10;;;;;;;6.95;1.20;;;;;;;24.14;60.75;101331.84;10503715;28;20036;-70
2023/08/08 07:54:10;;;;;;;2.10;1.23;;;;;;;23.88;58.28;101319.97;10503907;28;20391;-70
2023/08/08 07:59:11;;;;;;;3.65;1.20;;;;;;;23.66;57.30;101314.69;10503179;28;20044;-70
2023/08/08 08:04:11;;;;;;;5.10;1.00;;;;;;;23.73;62.42;101317.22;10502511;28;20071;-70
2023/08/08 08:09:12;;;;;;;2.10;1.95;;;;;;;23.49;59.21;101317.72;10504032;28;20036;-70
2023/08/08 08:14:13;;;;;;;1.55;1.48;;;;;;;23.68;58.19;101326.31;10502036;28;20466;-70
2023/08/08 08:19:13;;;;;;;2.05;1.17;;;;;;;23.47;60.29;101325.44;10502516;28;20036;-70
2023/08/08 08:24:13;;;;;;;1.38;1.27;;;;;;;24.17;56.55;101327.72;10501033;28;20044;-70
2023/08/08 08:29:14;;;;;;;1.90;1.75;;;;;;;23.02;61.73;101332.50;10500714;28;20037;-70
2023/08/08 08:34:14;;;;;;;1.40;1.30;;;;;;;23.52;55.74;101322.69;10502585;28;20115;-70
2023/08/08 08:39:15;;;;;;;1.85;1.30;;;;;;;23.53;54.84;101321.56;10500544;28;20479;-70
2023/08/08 08:44:18;;;;;;;0.93;0.93;;;;;;;22.45;52.95;101333.28;10500096;28;20048;-70
2023/08/08 08:49:19;;;;;;;1.02;1.02;;;;;;;21.67;56.29;101342.03;10499462;28;20107;-70
2023/08/08 08:54:19;;;;;;;8.77;1.45;;;;;;;22.57;54.27;101330.31;10499958;28;20486;-69
2023/08/08 08:59:19;;;;;;;1.40;1.30;;;;;;;24.75;57.65;101334.53;10499264;28;20082;-70
2023/08/08 09:04:20;;;;;;;1.98;1.05;;;;;;;24.89;50.56;101337.53;10499978;28;20127;-70
2023/08/08 09:09:22;;;;;;;2.85;1.30;;;;;;;24.40;51.74;101337.38;10500954;28;20112;-70
2023/08/08 09:14:24;;;;;;;1.23;1.20;;;;;;;24.87;49.54;101341.69;10498933;28;20062;-70
2023/08/08 09:19:24;;;;;;;1.95;1.50;;;;;;;24.91;46.30;101338.06;10500066;28;20032;-70
2023/08/08 09:24:25;;;;;;;1.23;1.13;;;;;;;24.56;46.62;101347.31;10515355;28;20089;-70
2023/08/08 09:29:25;;;;;;;0.80;0.80;;;;;;;23.02;50.23;101362.06;10499009;28;20102;-70
2023/08/08 09:34:26;;;;;;;0.85;0.85;;;;;;;22.49;51.94;101362.00;10497756;28;20056;-70
2023/08/08 09:39:27;;;;;;;6.05;1.42;;;;;;;23.59;51.86;101350.06;10499460;28;20028;-69
2023/08/08 09:44:29;;;;;;;1.77;1.42;;;;;;;23.73;51.45;101348.44;10497566;28;20519;-69
2023/08/08 09:49:31;;;;;;;2.75;1.63;;;;;;;24.64;48.05;101348.72;10497644;28;20482;-70
2023/08/08 09:54:32;;;;;;;1.55;1.45;;;;;;;24.90;48.96;101350.28;10498289;28;20071;-70
2023/08/08 09:59:32;;;;;;;1.80;1.70;;;;;;;25.24;50.32;101355.16;10480507;28;20063;-70
2023/08/08 10:04:32;;;;;;;2.53;1.52;;;;;;;25.24;47.61;101342.13;10497957;28;20467;-70
2023/08/08 10:09:33;;;;;;;1.10;1.10;;;;;;;24.18;46.68;101338.50;10497318;28;20032;-69
2023/08/08 10:14:37;;;;;;;1.48;1.35;;;;;;;23.97;46.65;101340.47;10499023;28;20067;-70
2023/08/08 10:19:38;;;;;;;1.02;1.02;;;;;;;23.85;48.56;101335.19;10497668;28;20054;-70
2023/08/08 10:24:38;;;;;;;1.55;1.13;;;;;;;24.34;47.21;101337.34;10497491;28;20067;-70
2023/08/08 10:29:39;;;;;;;1.30;1.30;;;;;;;25.25;47.08;101345.72;10498330;28;20051;-69
2023/08/08 10:34:40;;;;;;;1.15;1.15;;;;;;;25.66;46.64;101346.28;10495475;28;20036;-70
2023/08/08 10:40:11;;;;;;;4.07;1.67;;;;;;;25.81;47.17;101339.00;10480426;28;20028;-70
2023/08/08 10:45:13;;;;;;;1.45;1.35;;;;;;;25.50;47.13;101340.03;10484390;28;20094;-70
2023/08/08 10:50:15;;;;;;;0.70;0.70;;;;;;;24.78;45.22;101350.59;10497698;28;20040;-70
2023/08/08 10:55:24;;;;;;;2.65;1.30;;;;;;;25.23;45.72;101346.00;10496190;28;20041;-69
2023/08/08 11:00:26;;;;;;;3.85;1.75;;;;;;;25.92;45.95;101348.91;10479257;28;20077;-69
2023/08/08 11:05:29;;;;;;;2.88;1.60;;;;;;;25.48;45.27;101346.97;10478600;28;20605;-69
2023/08/08 11:10:32;;;;;;;0.80;0.80;;;;;;;25.23;47.05;101340.44;10463530;28;20095;-69
2023/08/08 11:15:33;;;;;;;2.00;1.58;;;;;;;25.46;47.98;101349.19;10496629;28;20430;-69
2023/08/08 11:20:34;;;;;;;4.68;1.42;;;;;;;26.31;44.28;101348.81;10499736;28;20062;-69
2023/08/08 11:25:34;;;;;;;4.88;1.33;;;;;;;25.54;45.95;101345.81;10505094;28;20090;-69
2023/08/08 11:30:43;;;;;;;1.65;1.38;;;;;;;24.70;46.13;101329.03;10504842;28;20117;-69
2023/08/08 11:35:46;;;;;;;5.40;1.60;;;;;;;25.61;46.49;101342.72;10504310;28;20044;-69
2023/08/08 11:40:46;;;;;;;2.13;1.35;;;;;;;24.34;47.34;101333.75;10503828;28;20052;-69
2023/08/08 11:45:49;;;;;;;1.13;1.13;;;;;;;26.09;46.13;101323.50;10503780;28;20094;-69
2023/08/08 11:50:49;;;;;;;1.50;1.35;;;;;;;25.35;47.21;101329.03;10502579;28;20055;-69
2023/08/08 11:55:50;;;;;;;1.23;1.13;;;;;;;25.56;46.67;101343.59;10484777;28;20044;-70
2023/08/08 12:00:50;;;;;;;1.38;1.27;;;;;;;25.59;46.29;101343.03;10502872;28;20036;-69
2023/08/08 12:05:51;;;;;;;1.60;1.17;;;;;;;24.61;45.85;101339.00;10503531;28;20041;-69
2023/08/08 12:10:53;;;;;;;1.85;1.45;;;;;;;25.12;46.13;101326.91;10502229;28;20037;-69
2023/08/08 12:15:53;;;;;;;1.40;1.20;;;;;;;24.13;48.39;101327.44;10502456;28;20161;-70
2023/08/08 12:20:54;;;;;;;2.45;1.67;;;;;;;23.19;49.80;101329.50;10519183;28;20037;-69
2023/08/08 12:25:54;;;;;;;1.48;1.42;;;;;;;24.52;47.45;101322.13;10502219;28;20380;-69
2023/08/08 12:30:55;;;;;;;3.88;2.20;;;;;;;22.97;48.43;101336.09;10502515;28;20070;-69
2023/08/08 12:35:55;;;;;;;2.65;1.20;;;;;;;22.46;50.34;101329.41;10501381;28;20086;-69
2023/08/08 12:40:56;;;;;;;1.85;1.38;;;;;;;22.84;48.80;101342.03;10502974;28;20054;-69
2023/08/08 12:45:57;;;;;;;3.72;1.33;;;;;;;23.00;48.80;101339.38;10499949;28;20092;-69
2023/08/08 12:50:57;;;;;;;1.75;1.27;;;;;;;24.66;46.97;101338.97;10500017;28;20044;-69
2023/08/08 12:55:57;;;;;;;1.17;1.08;;;;;;;24.82;44.57;101337.00;10501068;28;20170;-69
2023/08/08 13:00:58;;;;;;;1.52;1.27;;;;;;;24.55;44.07;101340.13;10501458;28;20079;-69
2023/08/08 13:05:58;;;;;;;0.80;0.80;;;;;;;24.91;46.28;101346.38;10500663;28;20032;-69
2023/08/08 13:10:59;;;;;;;1.77;1.63;;;;;;;24.53;48.36;101345.13;10500367;28;20071;-69
2023/08/08 13:15:59;;;;;;;1.67;1.58;;;;;;;24.43;47.94;101345.97;10500188;28;20403;-70
2023/08/08 13:20:59;;;;;;;1.60;1.42;;;;;;;25.02;46.43;101356.31;10499432;28;20043;-69
2023/08/08 13:26:00;;;;;;;4.50;2.03;;;;;;;25.18;45.88;101347.97;10499361;28;20043;-69
2023/08/08 13:31:01;;;;;;;2.28;1.90;;;;;;;24.22;46.15;101350.69;10499757;28;20063;-69
2023/08/08 13:36:01;;;;;;;6.18;2.75;;;;;;;23.96;46.00;101341.53;10499885;28;20467;-70
2023/08/08 13:41:01;;;;;;;2.25;1.42;;;;;;;24.55;46.33;101348.44;10498751;28;20076;-69
2023/08/08 13:46:07;;;;;;;4.60;1.88;;;;;;;24.37;46.77;101341.50;10498714;28;20039;-69
2023/08/08 13:51:07;;;;;;;1.80;1.13;;;;;;;23.74;47.35;101338.22;10500418;28;20037;-69
2023/08/08 13:56:08;;;;;;;3.28;1.60;;;;;;;24.44;46.18;101335.72;10498707;28;20036;-69
2023/08/08 14:01:08;;;;;;;2.08;1.92;;;;;;;24.77;48.41;101342.56;10497416;28;20095;-69
2023/08/08 14:06:09;;;;;;;11.98;2.10;;;;;;;25.11;46.61;101331.63;10498735;28;20045;-69
2023/08/08 14:11:09;;;;;;;4.22;1.92;;;;;;;24.55;47.20;101327.13;10497404;28;20038;-70
2023/08/08 14:16:10;;;;;;;1.30;1.25;;;;;;;24.26;48.60;101318.56;10496344;28;20086;-69
2023/08/08 14:21:10;;;;;;;4.55;1.95;;;;;;;23.61;49.83;101321.06;10497576;28;20036;-69
2023/08/08 14:26:11;;;;;;;1.42;1.33;;;;;;;22.42;49.58;101326.34;10497326;28;20048;-69
2023/08/08 14:31:11;;;;;;;1.60;1.33;;;;;;;22.21;52.07;101330.09;10497454;28;20052;-69
2023/08/08 14:36:11;;;;;;;1.63;1.52;;;;;;;22.82;51.37;101327.69;10498643;28;20066;-69
2023/08/08 14:41:12;;;;;;;3.08;1.98;;;;;;;22.41;52.79;101327.47;10497564;28;20052;-69
2023/08/08 14:46:13;;;;;;;4.10;2.15;;;;;;;22.19;53.36;101326.75;10496212;28;20036;-69
2023/08/08 14:51:16;;;;;;;2.63;1.95;;;;;;;21.84;53.69;101333.63;10496192;28;20146;-69
2023/08/08 14:56:16;;;;;;;4.28;1.92;;;;;;;21.53;55.80;101335.25;10496045;28;20031;-69
2023/08/08 15:01:17;;;;;;;8.10;2.28;;;;;;;21.29;57.41;101348.47;10497584;28;20358;-69
2023/08/08 15:06:17;;;;;;;6.28;2.10;;;;;;;21.01;57.96;101342.09;10495116;28;20044;-69
2023/08/08 15:11:18;;;;;;;6.95;2.13;;;;;;;20.84;58.71;101341.31;10495694;28;20047;-69
2023/08/08 15:16:18;;;;;;;3.15;2.17;;;;;;;20.56;59.22;101343.13;10496974;28;20087;-69
2023/08/08 15:21:19;;;;;;;5.88;2.25;;;;;;;20.37;60.18;101337.06;10495369;28;20396;-69
2023/08/08 15:26:22;;;;;;;2.38;1.73;;;;;;;20.31;62.00;101342.72;10495686;28;20062;-69
2023/08/08 15:31:22;;;;;;;10.55;1.67;;;;;;;20.00;65.86;101333.16;10496960;28;20102;-69
2023/08/08 15:36:22;;;;;;;3.92;1.90;;;;;;;19.68;71.03;101333.72;10493860;28;20056;-69
2023/08/08 15:41:23;;;;;;;5.10;2.05;;;;;;;19.32;74.36;101338.50;10494816;28;20052;-69
2023/08/08 15:46:23;;;;;;;6.95;2.85;;;;;;;18.75;81.11;101341.19;10495219;28;20491;-69
2023/08/08 15:51:24;;;;;;;4.63;2.40;;;;;;;18.42;87.66;101347.28;10477704;28;20041;-69
2023/08/08 15:56:24;;;;;;;2.65;1.92;;;;;;;18.15;93.81;101328.53;10494945;28;20032;-69
2023/08/08 16:01:24;;;;;;;4.82;2.72;;;;;;;18.07;94.93;101331.66;10495001;28;20043;-69
2023/08/08 16:06:25;;;;;;;8.98;1.92;;;;;;;18.10;93.58;101328.44;10496103;28;20041;-69
2023/08/08 16:11:25;;;;;;;4.43;2.70;;;;;;;18.26;91.97;101335.13;10501374;28;20029;-69
2023/08/08 16:16:26;;;;;;;3.50;2.50;;;;;;;18.31;92.34;101330.59;10503217;28;20044;-69
2023/08/08 16:21:26;;;;;;;3.47;2.60;;;;;;;18.12;94.33;101318.03;10502607;28;20066;-69
2023/08/08 16:26:26;;;;;;;2.72;2.53;;;;;;;17.94;100.00;101301.72;10503034;28;20032;-69
2023/08/08 16:31:27;;;;;;;4.60;2.90;;;;;;;17.97;100.00;101304.00;10501054;28;20476;-69
2023/08/08 16:36:28;;;;;;;4.22;3.45;;;;;;;18.03;100.00;101292.09;10501499;28;20033;-69
2023/08/08 16:41:28;;;;;;;11.10;3.63;;;;;;;18.08;100.00;101294.94;10484504;28;20368;-69
2023/08/08 16:46:29;;;;;;;8.38;3.60;;;;;;;18.00;100.00;101298.88;10501224;28;20048;-69
2023/08/08 16:51:29;;;;;;;12.77;3.13;;;;;;;17.95;100.00;101309.69;10500323;28;20098;-69
2023/08/08 16:56:30;;;;;;;4.30;2.28;;;;;;;17.83;100.00;101301.44;10500069;28;20039;-69
2023/08/08 17:01:30;;;;;;;9.45;2.45;;;;;;;17.57;100.00;101288.16;10499153;28;20434;-69
2023/08/08 17:06:32;;;;;;;8.77;2.63;;;;;;;17.33;100.00;101292.75;10500951;28;20094;-70
2023/08/08 17:11:32;;;;;;;3.63;1.42;;;;;;;17.13;100.00;101293.00;10501183;28;20039;-69
2023/08/08 17:16:33;;;;;;;2.42;2.08;;;;;;;17.18;100.00;101279.47;10498799;28;20516;-69
2023/08/08 17:21:33;;;;;;;3.90;1.77;;;;;;;17.23;100.00;101276.88;10498658;28;20035;-70
2023/08/08 17:26:34;;;;;;;2.95;1.80;;;;;;;17.19;100.00;101275.66;10498852;28;20056;-69
2023/08/08 17:31:35;;;;;;;6.82;1.45;;;;;;;17.12;100.00;101280.41;10500064;28;20047;-69
2023/08/08 17:36:35;;;;;;;5.22;1.95;;;;;;;16.79;100.00;101278.94;10499593;28;20364;-69
2023/08/08 17:41:36;;;;;;;2.58;1.50;;;;;;;16.47;100.00;101284.53;10499925;28;20075;-69
2023/08/08 17:46:36;;;;;;;5.00;1.40;;;;;;;16.28;100.00;101275.50;10499792;28;20072;-69
2023/08/08 17:51:36;;;;;;;3.60;1.75;;;;;;;16.29;100.00;101276.31;10499097;28;20064;-69
2023/08/08 17:56:37;;;;;;;1.63;1.52;;;;;;;16.31;100.00;101279.69;10497551;28;20032;-69
2023/08/08 18:01:37;;;;;;;2.50;1.70;;;;;;;16.30;100.00;101277.16;10496944;28;20123;-69
2023/08/08 18:06:38;;;;;;;2.92;1.33;;;;;;;16.37;100.00;101261.50;10499811;28;20410;-69
2023/08/08 18:11:38;;;;;;;5.07;1.95;;;;;;;16.34;100.00;101260.09;10498543;28;20068;-70
2023/08/08 18:16:39;;;;;;;3.22;1.35;;;;;;;16.35;100.00;101253.56;10497842;28;20418;-69
2023/08/08 18:21:39;;;;;;;1.05;1.02;;;;;;;16.39;100.00;101251.19;10496422;28;20044;-69
2023/08/08 18:26:39;;;;;;;6.43;1.60;;;;;;;16.43;100.00;101247.81;10495906;28;20108;-69
2023/08/08 18:31:40;;;;;;;1.83;1.58;;;;;;;16.45;100.00;101237.44;10495472;28;20056;-69
2023/08/08 18:36:40;;;;;;;8.38;1.67;;;;;;;16.39;100.00;101240.25;10497479;28;20111;-69
2023/08/08 18:41:41;;;;;;;4.70;1.35;;;;;;;16.37;100.00;101237.78;10478951;28;20509;-69
2023/08/08 18:46:45;;;;;;;2.03;1.73;;;;;;;16.35;100.00;101242.63;10498315;28;20090;-69
2023/08/08 18:51:45;;;;;;;2.83;1.98;;;;;;;16.33;100.00;101228.34;10496995;28;20036;-69
2023/08/08 18:56:46;;;;;;;6.05;1.95;;;;;;;16.14;100.00;101223.94;10495642;28;20476;-69
2023/08/08 19:01:46;;;;;;;5.57;2.25;;;;;;;15.94;100.00;101230.44;10496822;28;20048;-69
2023/08/08 19:06:46;;;;;;;5.57;1.73;;;;;;;15.85;100.00;101223.59;10496674;28;20055;-69
2023/08/08 19:11:47;;;;;;;4.00;2.53;;;;;;;15.81;100.00;101222.38;10498076;28;20033;-69
2023/08/08 19:16:47;;;;;;;2.92;1.80;;;;;;;15.82;100.00;101237.69;10497810;28;20115;-69
2023/08/08 19:21:48;;;;;;;1.85;1.75;;;;;;;15.80;100.00;101229.72;10496989;28;20040;-69
2023/08/08 19:26:48;;;;;;;2.13;1.73;;;;;;;15.67;100.00;101229.03;10496574;28;20070;-69
2023/08/08 19:31:48;;;;;;;2.67;2.45;;;;;;;15.64;100.00;101227.53;10495119;28;20033;-69
2023/08/08 19:36:49;;;;;;;5.55;4.85;;;;;;;15.62;100.00;101212.44;10496736;28;20056;-69
2023/08/08 19:41:49;;;;;;;11.32;2.85;;;;;;;15.57;100.00;101213.94;10500238;28;20152;-68
2023/08/08 19:46:50;;;;;;;4.32;2.80;;;;;;;15.56;100.00;101201.34;10505118;28;20037;-69
2023/08/08 19:51:50;;;;;;;2.53;2.33;;;;;;;15.54;100.00;101202.63;10502835;28;20494;-69
2023/08/08 19:56:50;;;;;;;1.88;1.77;;;;;;;15.52;100.00;101194.66;10503094;28;20434;-69
2023/08/08 20:01:51;;;;;;;2.47;2.28;;;;;;;15.54;100.00;101198.00;10504288;28;20131;-69
2023/08/08 20:06:51;;;;;;;4.07;3.78;;;;;;;15.61;100.00;101205.31;10485208;28;20041;-69
2023/08/08 20:11:52;;;;;;;3.63;3.05;;;;;;;15.63;100.00;101219.56;10503344;28;20063;-69
2023/08/08 20:16:52;;;;;;;2.38;2.17;;;;;;;15.66;100.00;101232.75;10485099;28;20067;-69
2023/08/08 20:21:52;;;;;;;3.10;2.80;;;;;;;15.71;100.00;101232.97;10500932;28;20036;-69
2023/08/08 20:26:53;;;;;;;2.13;2.03;;;;;;;15.64;100.00;101221.25;10484683;28;20115;-68
2023/08/08 20:31:53;;;;;;;2.20;1.90;;;;;;;15.58;100.00;101222.97;10503097;28;20529;-68
2023/08/08 20:36:54;;;;;;;1.70;1.60;;;;;;;15.57;100.00;101237.66;10503239;28;20121;-67
2023/08/08 20:41:55;;;;;;;2.97;1.65;;;;;;;15.40;100.00;101220.16;10502072;28;20049;-67
2023/08/08 20:46:55;;;;;;;3.90;1.33;;;;;;;15.29;100.00;101205.34;10502655;28;20044;-67
2023/08/08 20:51:57;;;;;;;1.67;1.40;;;;;;;15.14;100.00;101197.47;10499223;28;20063;-67
2023/08/08 20:56:58;;;;;;;2.47;1.77;;;;;;;15.00;100.00;101190.44;10502249;28;20046;-67
2023/08/08 21:01:58;;;;;;;2.30;1.65;;;;;;;14.93;100.00;101185.00;10499475;28;20464;-68
2023/08/08 21:06:58;;;;;;;1.50;1.40;;;;;;;14.87;100.00;101186.75;10500891;28;20090;-68
2023/08/08 21:11:59;;;;;;;3.03;1.75;;;;;;;14.94;100.00;101199.50;10499675;28;20119;-68
2023/08/08 21:16:59;;;;;;;2.72;1.73;;;;;;;14.98;100.00;101184.38;10502186;28;20411;-68
2023/08/08 21:22:00;;;;;;;3.30;1.67;;;;;;;14.99;100.00;101175.94;10500518;28;20042;-68
2023/08/08 21:27:01;;;;;;;3.08;1.75;;;;;;;14.95;100.00;101179.34;10498878;28;20086;-68
2023/08/08 21:32:01;;;;;;;2.83;1.98;;;;;;;14.96;100.00;101190.03;10499227;28;20127;-68
2023/08/08 21:37:01;;;;;;;3.17;1.77;;;;;;;14.96;100.00;101206.38;10501157;28;20425;-68
2023/08/08 21:42:02;;;;;;;2.17;1.98;;;;;;;14.99;100.00;101202.41;10500083;28;20059;-69
2023/08/08 21:47:02;;;;;;;4.28;3.72;;;;;;;15.01;100.00;101205.75;10499204;28;20032;-67
2023/08/08 21:52:03;;;;;;;3.38;2.85;;;;;;;15.04;100.00;101216.22;10499031;28;20480;-68
2023/08/08 21:57:04;;;;;;;3.92;2.63;;;;;;;15.01;100.00;101219.38;10498908;28;20190;-68
2023/08/08 22:02:04;;;;;;;12.55;4.15;;;;;;;14.92;100.00;101226.97;10498088;28;20056;-68
2023/08/08 22:07:04;;;;;;;4.55;3.45;;;;;;;14.89;100.00;101224.69;10498768;28;20035;-68
2023/08/08 22:12:05;;;;;;;6.43;4.22;;;;;;;14.88;100.00;101218.41;10481024;28;20039;-68
2023/08/08 22:17:05;;;;;;;5.80;4.55;;;;;;;14.83;100.00;101201.84;10498606;28;20035;-68
2023/08/08 22:22:06;;;;;;;3.15;2.85;;;;;;;14.79;100.00;101216.97;10499033;28;20044;-68
2023/08/08 22:27:06;;;;;;;5.70;3.63;;;;;;;14.75;100.00;101223.94;10498567;28;20032;-68
2023/08/08 22:32:07;;;;;;;4.47;4.07;;;;;;;14.74;100.00;101208.63;10496509;28;20044;-68
2023/08/08 22:37:07;;;;;;;7.53;4.93;;;;;;;14.72;100.00;101210.72;10496423;28;20082;-68
2023/08/08 22:42:07;;;;;;;11.57;5.35;;;;;;;14.76;100.00;101219.31;10497167;28;20126;-68
2023/08/08 22:47:08;;;;;;;8.20;4.72;;;;;;;14.73;100.00;101217.03;10497925;28;20131;-68
2023/08/08 22:52:08;;;;;;;5.03;3.55;;;;;;;14.64;100.00;101202.78;10480882;28;20503;-68